sensor_id;sensor_type;location;lat;lon;timestamp;P1;durP1;ratioP1;P2;durP2;ratioP2
41426;SDS011;27171;51.812;19.514;2023-02-28T00:02:27;6.78;;;3.42;;
41426;SDS011;27171;51.812;19.514;2023-02-28T00:05:28;6.43;;;3.53;;
41426;SDS011;27171;51.812;19.514;2023-02-28T00:08:30;8.98;;;4.32;;
41426;SDS011;27171;51.812;19.514;2023-02-28T00:11:31;9.85;;;4.40;;
41426;SDS011;27171;51.812;19.514;2023-02-28T00:17:33;7.50;;;3.92;;
41426;SDS011;27171;51.812;19.514;2023-02-28T00:23:35;7.20;;;4.68;;
41426;SDS011;27171;51.812;19.514;2023-02-28T00:26:37;9.98;;;5.38;;
41426;SDS011;27171;51.812;19.514;2023-02-28T00:29:38;7.97;;;4.47;;
41426;SDS011;27171;51.812;19.514;2023-02-28T00:32:39;7.68;;;4.05;;
41426;SDS011;27171;51.812;19.514;2023-02-28T00:35:40;7.88;;;4.45;;
41426;SDS011;27171;51.812;19.514;2023-02-28T00:38:43;7.13;;;3.88;;
41426;SDS011;27171;51.812;19.514;2023-02-28T00:41:44;5.50;;;2.95;;
41426;SDS011;27171;51.812;19.514;2023-02-28T00:47:46;6.78;;;3.65;;
41426;SDS011;27171;51.812;19.514;2023-02-28T00:53:49;6.30;;;3.65;;
41426;SDS011;27171;51.812;19.514;2023-02-28T00:56:51;6.97;;;4.18;;
41426;SDS011;27171;51.812;19.514;2023-02-28T00:59:52;6.03;;;3.63;;
41426;SDS011;27171;51.812;19.514;2023-02-28T01:02:53;6.57;;;4.03;;
41426;SDS011;27171;51.812;19.514;2023-02-28T01:05:54;8.27;;;4.32;;
41426;SDS011;27171;51.812;19.514;2023-02-28T01:08:55;6.50;;;3.65;;
41426;SDS011;27171;51.812;19.514;2023-02-28T01:11:56;7.35;;;3.58;;
41426;SDS011;27171;51.812;19.514;2023-02-28T01:14:58;6.20;;;4.00;;
41426;SDS011;27171;51.812;19.514;2023-02-28T01:17:59;7.50;;;3.92;;
41426;SDS011;27171;51.812;19.514;2023-02-28T01:21:08;7.68;;;3.80;;
41426;SDS011;27171;51.812;19.514;2023-02-28T01:24:12;9.55;;;4.57;;
41426;SDS011;27171;51.812;19.514;2023-02-28T01:27:13;7.25;;;4.15;;
41426;SDS011;27171;51.812;19.514;2023-02-28T01:30:14;6.70;;;4.25;;
41426;SDS011;27171;51.812;19.514;2023-02-28T01:33:15;7.60;;;4.60;;
41426;SDS011;27171;51.812;19.514;2023-02-28T01:36:18;7.72;;;4.60;;
41426;SDS011;27171;51.812;19.514;2023-02-28T01:39:20;7.85;;;4.30;;
41426;SDS011;27171;51.812;19.514;2023-02-28T01:42:22;6.65;;;3.63;;
41426;SDS011;27171;51.812;19.514;2023-02-28T01:48:30;5.40;;;3.55;;
41426;SDS011;27171;51.812;19.514;2023-02-28T01:54:48;8.88;;;4.20;;
41426;SDS011;27171;51.812;19.514;2023-02-28T01:57:53;5.80;;;4.20;;
41426;SDS011;27171;51.812;19.514;2023-02-28T02:00:59;8.95;;;4.13;;
41426;SDS011;27171;51.812;19.514;2023-02-28T02:04:01;6.85;;;4.00;;
41426;SDS011;27171;51.812;19.514;2023-02-28T02:07:03;7.53;;;4.13;;
41426;SDS011;27171;51.812;19.514;2023-02-28T02:10:09;6.82;;;4.13;;
41426;SDS011;27171;51.812;19.514;2023-02-28T02:13:21;8.63;;;4.00;;
41426;SDS011;27171;51.812;19.514;2023-02-28T02:37:01;9.77;;;5.35;;
41426;SDS011;27171;51.812;19.514;2023-02-28T02:40:16;7.65;;;4.53;;
41426;SDS011;27171;51.812;19.514;2023-02-28T02:43:35;8.00;;;4.82;;
41426;SDS011;27171;51.812;19.514;2023-02-28T02:46:52;9.43;;;4.95;;
41426;SDS011;27171;51.812;19.514;2023-02-28T02:50:03;9.30;;;4.80;;
41426;SDS011;27171;51.812;19.514;2023-02-28T02:53:07;8.27;;;5.20;;
41426;SDS011;27171;51.812;19.514;2023-02-28T02:56:12;7.90;;;5.43;;
41426;SDS011;27171;51.812;19.514;2023-02-28T02:59:16;8.13;;;5.28;;
41426;SDS011;27171;51.812;19.514;2023-02-28T03:02:21;8.27;;;4.95;;
41426;SDS011;27171;51.812;19.514;2023-02-28T03:05:25;7.75;;;4.97;;
41426;SDS011;27171;51.812;19.514;2023-02-28T03:08:31;7.78;;;5.25;;
41426;SDS011;27171;51.812;19.514;2023-02-28T03:11:35;8.93;;;5.28;;
41426;SDS011;27171;51.812;19.514;2023-02-28T03:18:04;8.30;;;5.18;;
41426;SDS011;27171;51.812;19.514;2023-02-28T03:27:48;8.15;;;5.50;;
41426;SDS011;27171;51.812;19.514;2023-02-28T03:31:03;8.85;;;5.90;;
41426;SDS011;27171;51.812;19.514;2023-02-28T03:37:22;9.30;;;5.43;;
41426;SDS011;27171;51.812;19.514;2023-02-28T03:40:27;11.32;;;6.13;;
41426;SDS011;27171;51.812;19.514;2023-02-28T03:43:33;8.60;;;5.95;;
41426;SDS011;27171;51.812;19.514;2023-02-28T03:46:38;8.82;;;6.20;;
41426;SDS011;27171;51.812;19.514;2023-02-28T03:50:05;8.85;;;5.85;;
41426;SDS011;27171;51.812;19.514;2023-02-28T03:53:12;10.90;;;6.22;;
41426;SDS011;27171;51.812;19.514;2023-02-28T03:56:27;9.07;;;6.10;;
41426;SDS011;27171;51.812;19.514;2023-02-28T03:59:37;10.43;;;6.85;;
41426;SDS011;27171;51.812;19.514;2023-02-28T04:02:44;7.47;;;5.70;;
41426;SDS011;27171;51.812;19.514;2023-02-28T04:05:52;8.93;;;5.68;;
41426;SDS011;27171;51.812;19.514;2023-02-28T04:08:55;12.00;;;5.97;;
41426;SDS011;27171;51.812;19.514;2023-02-28T04:11:56;10.05;;;6.18;;
41426;SDS011;27171;51.812;19.514;2023-02-28T04:14:57;8.48;;;5.32;;
41426;SDS011;27171;51.812;19.514;2023-02-28T04:17:58;9.18;;;5.70;;
41426;SDS011;27171;51.812;19.514;2023-02-28T04:20:59;13.98;;;6.07;;
41426;SDS011;27171;51.812;19.514;2023-02-28T04:24:01;8.93;;;5.63;;
41426;SDS011;27171;51.812;19.514;2023-02-28T04:27:02;10.90;;;7.30;;
41426;SDS011;27171;51.812;19.514;2023-02-28T04:30:04;9.60;;;5.97;;
41426;SDS011;27171;51.812;19.514;2023-02-28T04:33:05;11.52;;;6.30;;
41426;SDS011;27171;51.812;19.514;2023-02-28T04:36:07;11.50;;;7.28;;
41426;SDS011;27171;51.812;19.514;2023-02-28T04:39:09;10.07;;;5.53;;
41426;SDS011;27171;51.812;19.514;2023-02-28T04:42:10;10.20;;;6.57;;
41426;SDS011;27171;51.812;19.514;2023-02-28T04:45:12;8.68;;;5.78;;
41426;SDS011;27171;51.812;19.514;2023-02-28T04:48:13;10.93;;;6.93;;
41426;SDS011;27171;51.812;19.514;2023-02-28T04:51:15;12.30;;;6.88;;
41426;SDS011;27171;51.812;19.514;2023-02-28T04:54:17;12.27;;;6.93;;
41426;SDS011;27171;51.812;19.514;2023-02-28T04:57:18;10.90;;;7.30;;
41426;SDS011;27171;51.812;19.514;2023-02-28T05:00:19;9.77;;;6.45;;
41426;SDS011;27171;51.812;19.514;2023-02-28T05:03:21;13.10;;;7.97;;
41426;SDS011;27171;51.812;19.514;2023-02-28T05:06:23;12.85;;;7.47;;
41426;SDS011;27171;51.812;19.514;2023-02-28T05:09:25;12.90;;;7.15;;
41426;SDS011;27171;51.812;19.514;2023-02-28T05:12:26;11.15;;;6.70;;
41426;SDS011;27171;51.812;19.514;2023-02-28T05:15:27;10.60;;;6.93;;
41426;SDS011;27171;51.812;19.514;2023-02-28T05:18:28;10.70;;;6.72;;
41426;SDS011;27171;51.812;19.514;2023-02-28T05:21:31;14.50;;;7.20;;
41426;SDS011;27171;51.812;19.514;2023-02-28T05:24:34;10.45;;;6.57;;
41426;SDS011;27171;51.812;19.514;2023-02-28T05:27:35;11.50;;;7.13;;
41426;SDS011;27171;51.812;19.514;2023-02-28T05:30:36;13.00;;;8.18;;
41426;SDS011;27171;51.812;19.514;2023-02-28T05:33:37;12.75;;;7.15;;
41426;SDS011;27171;51.812;19.514;2023-02-28T05:36:38;12.60;;;6.38;;
41426;SDS011;27171;51.812;19.514;2023-02-28T05:39:39;12.18;;;7.40;;
41426;SDS011;27171;51.812;19.514;2023-02-28T05:42:40;16.85;;;8.40;;
41426;SDS011;27171;51.812;19.514;2023-02-28T05:45:42;22.60;;;10.63;;
41426;SDS011;27171;51.812;19.514;2023-02-28T05:48:46;18.50;;;9.65;;
41426;SDS011;27171;51.812;19.514;2023-02-28T05:51:48;18.75;;;9.20;;
41426;SDS011;27171;51.812;19.514;2023-02-28T05:54:49;17.38;;;9.75;;
41426;SDS011;27171;51.812;19.514;2023-02-28T05:57:50;18.35;;;10.57;;
41426;SDS011;27171;51.812;19.514;2023-02-28T06:00:51;17.05;;;9.38;;
41426;SDS011;27171;51.812;19.514;2023-02-28T06:03:52;21.30;;;10.55;;
41426;SDS011;27171;51.812;19.514;2023-02-28T06:06:53;20.45;;;10.73;;
41426;SDS011;27171;51.812;19.514;2023-02-28T06:09:54;17.30;;;10.88;;
41426;SDS011;27171;51.812;19.514;2023-02-28T06:12:55;16.60;;;8.82;;
41426;SDS011;27171;51.812;19.514;2023-02-28T06:16:02;15.45;;;9.35;;
41426;SDS011;27171;51.812;19.514;2023-02-28T06:19:04;22.25;;;10.52;;
41426;SDS011;27171;51.812;19.514;2023-02-28T06:22:05;18.50;;;9.32;;
41426;SDS011;27171;51.812;19.514;2023-02-28T06:25:06;22.55;;;10.93;;
41426;SDS011;27171;51.812;19.514;2023-02-28T06:28:07;24.55;;;11.30;;
41426;SDS011;27171;51.812;19.514;2023-02-28T06:31:09;20.48;;;9.75;;
41426;SDS011;27171;51.812;19.514;2023-02-28T06:34:12;23.85;;;10.82;;
41426;SDS011;27171;51.812;19.514;2023-02-28T06:37:14;21.23;;;10.52;;
41426;SDS011;27171;51.812;19.514;2023-02-28T06:40:18;19.90;;;10.68;;
41426;SDS011;27171;51.812;19.514;2023-02-28T06:43:19;20.13;;;10.95;;
41426;SDS011;27171;51.812;19.514;2023-02-28T06:46:21;15.43;;;8.77;;
41426;SDS011;27171;51.812;19.514;2023-02-28T06:49:22;14.48;;;9.38;;
41426;SDS011;27171;51.812;19.514;2023-02-28T06:52:23;15.63;;;9.20;;
41426;SDS011;27171;51.812;19.514;2023-02-28T06:55:24;16.60;;;8.98;;
41426;SDS011;27171;51.812;19.514;2023-02-28T06:58:25;15.95;;;9.70;;
41426;SDS011;27171;51.812;19.514;2023-02-28T07:01:26;14.82;;;9.52;;
41426;SDS011;27171;51.812;19.514;2023-02-28T07:04:27;13.40;;;8.93;;
41426;SDS011;27171;51.812;19.514;2023-02-28T07:07:29;12.90;;;9.50;;
41426;SDS011;27171;51.812;19.514;2023-02-28T07:10:30;11.63;;;8.05;;
41426;SDS011;27171;51.812;19.514;2023-02-28T07:13:31;13.63;;;7.65;;
41426;SDS011;27171;51.812;19.514;2023-02-28T07:16:32;10.90;;;7.45;;
41426;SDS011;27171;51.812;19.514;2023-02-28T07:19:33;13.25;;;7.97;;
41426;SDS011;27171;51.812;19.514;2023-02-28T07:22:35;9.20;;;6.82;;
41426;SDS011;27171;51.812;19.514;2023-02-28T07:25:36;13.90;;;7.75;;
41426;SDS011;27171;51.812;19.514;2023-02-28T07:28:37;12.25;;;6.82;;
41426;SDS011;27171;51.812;19.514;2023-02-28T07:31:38;9.95;;;5.95;;
41426;SDS011;27171;51.812;19.514;2023-02-28T07:37:40;11.93;;;6.35;;
41426;SDS011;27171;51.812;19.514;2023-02-28T07:40:42;8.80;;;5.93;;
41426;SDS011;27171;51.812;19.514;2023-02-28T07:46:44;8.80;;;5.65;;
41426;SDS011;27171;51.812;19.514;2023-02-28T07:52:46;9.05;;;5.55;;
41426;SDS011;27171;51.812;19.514;2023-02-28T07:58:48;7.65;;;5.30;;
41426;SDS011;27171;51.812;19.514;2023-02-28T08:01:49;10.93;;;6.68;;
41426;SDS011;27171;51.812;19.514;2023-02-28T08:04:50;9.98;;;5.53;;
41426;SDS011;27171;51.812;19.514;2023-02-28T08:07:52;8.18;;;4.97;;
41426;SDS011;27171;51.812;19.514;2023-02-28T08:10:53;9.90;;;6.15;;
41426;SDS011;27171;51.812;19.514;2023-02-28T08:16:55;8.63;;;5.70;;
41426;SDS011;27171;51.812;19.514;2023-02-28T08:19:56;8.13;;;5.72;;
41426;SDS011;27171;51.812;19.514;2023-02-28T08:22:57;10.20;;;6.38;;
41426;SDS011;27171;51.812;19.514;2023-02-28T08:29:02;10.25;;;5.93;;
41426;SDS011;27171;51.812;19.514;2023-02-28T08:32:04;9.55;;;5.97;;
41426;SDS011;27171;51.812;19.514;2023-02-28T08:35:06;11.05;;;6.10;;
41426;SDS011;27171;51.812;19.514;2023-02-28T08:38:08;8.90;;;5.38;;
41426;SDS011;27171;51.812;19.514;2023-02-28T08:41:10;10.00;;;6.43;;
41426;SDS011;27171;51.812;19.514;2023-02-28T08:44:13;7.95;;;5.18;;
41426;SDS011;27171;51.812;19.514;2023-02-28T08:47:14;10.43;;;5.93;;
41426;SDS011;27171;51.812;19.514;2023-02-28T08:50:15;9.93;;;6.28;;
41426;SDS011;27171;51.812;19.514;2023-02-28T08:53:16;6.90;;;5.13;;
41426;SDS011;27171;51.812;19.514;2023-02-28T09:02:19;7.85;;;5.10;;
41426;SDS011;27171;51.812;19.514;2023-02-28T09:05:20;8.93;;;5.82;;
41426;SDS011;27171;51.812;19.514;2023-02-28T09:11:22;8.75;;;5.65;;
41426;SDS011;27171;51.812;19.514;2023-02-28T09:17:24;8.80;;;4.93;;
41426;SDS011;27171;51.812;19.514;2023-02-28T09:23:26;8.30;;;5.15;;
41426;SDS011;27171;51.812;19.514;2023-02-28T09:26:27;8.30;;;5.72;;
41426;SDS011;27171;51.812;19.514;2023-02-28T09:29:29;9.18;;;5.57;;
41426;SDS011;27171;51.812;19.514;2023-02-28T09:32:30;8.40;;;5.20;;
41426;SDS011;27171;51.812;19.514;2023-02-28T09:38:32;7.40;;;5.15;;
41426;SDS011;27171;51.812;19.514;2023-02-28T09:41:41;8.50;;;5.90;;
41426;SDS011;27171;51.812;19.514;2023-02-28T09:44:44;8.55;;;5.97;;
41426;SDS011;27171;51.812;19.514;2023-02-28T09:47:47;8.82;;;4.95;;
41426;SDS011;27171;51.812;19.514;2023-02-28T09:50:51;7.65;;;4.75;;
41426;SDS011;27171;51.812;19.514;2023-02-28T09:53:56;6.95;;;5.03;;
41426;SDS011;27171;51.812;19.514;2023-02-28T10:07:19;10.32;;;6.82;;
41426;SDS011;27171;51.812;19.514;2023-02-28T10:10:24;10.68;;;6.30;;
41426;SDS011;27171;51.812;19.514;2023-02-28T10:16:43;7.82;;;5.90;;
41426;SDS011;27171;51.812;19.514;2023-02-28T10:26:12;9.45;;;5.60;;
41426;SDS011;27171;51.812;19.514;2023-02-28T10:29:15;10.32;;;6.20;;
41426;SDS011;27171;51.812;19.514;2023-02-28T10:35:20;10.32;;;6.30;;
41426;SDS011;27171;51.812;19.514;2023-02-28T10:38:32;9.40;;;6.45;;
41426;SDS011;27171;51.812;19.514;2023-02-28T10:41:35;10.73;;;6.75;;
41426;SDS011;27171;51.812;19.514;2023-02-28T10:44:43;9.35;;;5.70;;
41426;SDS011;27171;51.812;19.514;2023-02-28T10:53:36;9.52;;;6.00;;
41426;SDS011;27171;51.812;19.514;2023-02-28T10:56:40;7.43;;;5.53;;
41426;SDS011;27171;51.812;19.514;2023-02-28T11:02:42;9.93;;;5.65;;
41426;SDS011;27171;51.812;19.514;2023-02-28T11:05:43;10.90;;;6.50;;
41426;SDS011;27171;51.812;19.514;2023-02-28T11:08:49;8.88;;;6.05;;
41426;SDS011;27171;51.812;19.514;2023-02-28T11:11:57;9.77;;;6.15;;
41426;SDS011;27171;51.812;19.514;2023-02-28T11:15:01;10.93;;;6.15;;
41426;SDS011;27171;51.812;19.514;2023-02-28T11:18:19;9.18;;;6.15;;
41426;SDS011;27171;51.812;19.514;2023-02-28T11:21:27;8.98;;;5.70;;
41426;SDS011;27171;51.812;19.514;2023-02-28T11:24:35;9.02;;;6.05;;
41426;SDS011;27171;51.812;19.514;2023-02-28T11:27:46;8.38;;;5.63;;
41426;SDS011;27171;51.812;19.514;2023-02-28T11:34:21;7.97;;;5.35;;
41426;SDS011;27171;51.812;19.514;2023-02-28T11:37:25;6.00;;;4.32;;
41426;SDS011;27171;51.812;19.514;2023-02-28T11:53:14;10.70;;;6.25;;
41426;SDS011;27171;51.812;19.514;2023-02-28T11:56:31;10.07;;;6.75;;
41426;SDS011;27171;51.812;19.514;2023-02-28T12:12:45;8.27;;;5.90;;
41426;SDS011;27171;51.812;19.514;2023-02-28T12:19:20;9.60;;;7.18;;
41426;SDS011;27171;51.812;19.514;2023-02-28T12:28:48;8.60;;;6.35;;
41426;SDS011;27171;51.812;19.514;2023-02-28T12:31:54;9.13;;;6.22;;
41426;SDS011;27171;51.812;19.514;2023-02-28T12:35:22;8.57;;;6.32;;
41426;SDS011;27171;51.812;19.514;2023-02-28T12:38:28;8.65;;;5.55;;
41426;SDS011;27171;51.812;19.514;2023-02-28T12:41:46;13.07;;;7.78;;
41426;SDS011;27171;51.812;19.514;2023-02-28T12:44:54;8.10;;;5.97;;
41426;SDS011;27171;51.812;19.514;2023-02-28T12:48:00;8.02;;;5.88;;
41426;SDS011;27171;51.812;19.514;2023-02-28T12:51:05;8.60;;;6.13;;
41426;SDS011;27171;51.812;19.514;2023-02-28T12:54:12;9.60;;;5.95;;
41426;SDS011;27171;51.812;19.514;2023-02-28T12:57:38;8.50;;;5.60;;
41426;SDS011;27171;51.812;19.514;2023-02-28T13:07:28;9.27;;;6.03;;
41426;SDS011;27171;51.812;19.514;2023-02-28T13:10:40;9.68;;;6.07;;
41426;SDS011;27171;51.812;19.514;2023-02-28T13:13:46;9.68;;;6.03;;
41426;SDS011;27171;51.812;19.514;2023-02-28T13:20:17;8.18;;;6.35;;
41426;SDS011;27171;51.812;19.514;2023-02-28T13:32:43;8.65;;;5.35;;
41426;SDS011;27171;51.812;19.514;2023-02-28T13:35:45;9.45;;;6.18;;
41426;SDS011;27171;51.812;19.514;2023-02-28T13:38:51;8.63;;;6.55;;
41426;SDS011;27171;51.812;19.514;2023-02-28T13:42:11;8.15;;;6.10;;
41426;SDS011;27171;51.812;19.514;2023-02-28T13:45:23;9.65;;;6.90;;
41426;SDS011;27171;51.812;19.514;2023-02-28T13:48:28;10.00;;;6.53;;
41426;SDS011;27171;51.812;19.514;2023-02-28T14:07:53;9.40;;;7.38;;
41426;SDS011;27171;51.812;19.514;2023-02-28T14:11:05;10.75;;;6.80;;
41426;SDS011;27171;51.812;19.514;2023-02-28T14:14:53;10.63;;;8.40;;
41426;SDS011;27171;51.812;19.514;2023-02-28T14:17:36;9.32;;;7.65;;
41426;SDS011;27171;51.812;19.514;2023-02-28T14:20:37;11.80;;;7.95;;
41426;SDS011;27171;51.812;19.514;2023-02-28T14:27:08;11.23;;;7.60;;
41426;SDS011;27171;51.812;19.514;2023-02-28T14:36:54;10.13;;;6.78;;
41426;SDS011;27171;51.812;19.514;2023-02-28T14:40:01;10.65;;;7.40;;
41426;SDS011;27171;51.812;19.514;2023-02-28T14:43:05;11.63;;;7.93;;
41426;SDS011;27171;51.812;19.514;2023-02-28T14:46:18;10.65;;;8.55;;
41426;SDS011;27171;51.812;19.514;2023-02-28T14:49:31;12.73;;;8.35;;
41426;SDS011;27171;51.812;19.514;2023-02-28T14:52:37;11.20;;;8.48;;
41426;SDS011;27171;51.812;19.514;2023-02-28T14:55:43;13.57;;;8.38;;
41426;SDS011;27171;51.812;19.514;2023-02-28T14:58:50;11.57;;;8.30;;
41426;SDS011;27171;51.812;19.514;2023-02-28T15:02:13;12.50;;;8.95;;
41426;SDS011;27171;51.812;19.514;2023-02-28T15:08:26;11.60;;;8.13;;
41426;SDS011;27171;51.812;19.514;2023-02-28T15:11:27;15.38;;;9.07;;
41426;SDS011;27171;51.812;19.514;2023-02-28T15:14:29;12.90;;;8.43;;
41426;SDS011;27171;51.812;19.514;2023-02-28T15:17:31;12.00;;;9.15;;
41426;SDS011;27171;51.812;19.514;2023-02-28T15:20:32;10.38;;;7.50;;
41426;SDS011;27171;51.812;19.514;2023-02-28T15:23:35;11.75;;;8.13;;
41426;SDS011;27171;51.812;19.514;2023-02-28T15:26:39;12.63;;;9.20;;
41426;SDS011;27171;51.812;19.514;2023-02-28T15:29:44;11.60;;;8.27;;
41426;SDS011;27171;51.812;19.514;2023-02-28T15:36:16;12.02;;;8.68;;
41426;SDS011;27171;51.812;19.514;2023-02-28T15:39:20;13.60;;;9.45;;
41426;SDS011;27171;51.812;19.514;2023-02-28T15:42:23;13.63;;;9.45;;
41426;SDS011;27171;51.812;19.514;2023-02-28T15:45:33;15.13;;;10.65;;
41426;SDS011;27171;51.812;19.514;2023-02-28T15:48:42;14.98;;;10.80;;
41426;SDS011;27171;51.812;19.514;2023-02-28T15:51:44;14.00;;;9.80;;
41426;SDS011;27171;51.812;19.514;2023-02-28T15:54:46;14.05;;;10.20;;
41426;SDS011;27171;51.812;19.514;2023-02-28T15:57:48;15.10;;;10.23;;
41426;SDS011;27171;51.812;19.514;2023-02-28T16:01:04;14.98;;;9.65;;
41426;SDS011;27171;51.812;19.514;2023-02-28T16:04:15;19.35;;;12.15;;
41426;SDS011;27171;51.812;19.514;2023-02-28T16:07:18;17.58;;;12.48;;
41426;SDS011;27171;51.812;19.514;2023-02-28T16:13:21;20.60;;;11.60;;
41426;SDS011;27171;51.812;19.514;2023-02-28T16:19:24;20.95;;;12.00;;
41426;SDS011;27171;51.812;19.514;2023-02-28T16:25:28;21.77;;;12.88;;
41426;SDS011;27171;51.812;19.514;2023-02-28T16:28:36;24.85;;;13.52;;
41426;SDS011;27171;51.812;19.514;2023-02-28T16:31:38;22.50;;;12.90;;
41426;SDS011;27171;51.812;19.514;2023-02-28T16:37:40;16.00;;;10.60;;
41426;SDS011;27171;51.812;19.514;2023-02-28T16:40:42;21.10;;;12.20;;
41426;SDS011;27171;51.812;19.514;2023-02-28T16:43:43;20.92;;;12.45;;
41426;SDS011;27171;51.812;19.514;2023-02-28T16:46:46;17.20;;;11.95;;
41426;SDS011;27171;51.812;19.514;2023-02-28T16:49:47;19.58;;;13.20;;
41426;SDS011;27171;51.812;19.514;2023-02-28T16:52:48;23.92;;;14.18;;
41426;SDS011;27171;51.812;19.514;2023-02-28T16:55:49;27.30;;;14.93;;
41426;SDS011;27171;51.812;19.514;2023-02-28T17:01:51;24.25;;;13.20;;
41426;SDS011;27171;51.812;19.514;2023-02-28T17:04:55;23.35;;;12.50;;
41426;SDS011;27171;51.812;19.514;2023-02-28T17:10:58;21.77;;;12.65;;
41426;SDS011;27171;51.812;19.514;2023-02-28T17:13:59;26.70;;;14.00;;
41426;SDS011;27171;51.812;19.514;2023-02-28T17:17:00;28.20;;;15.75;;
41426;SDS011;27171;51.812;19.514;2023-02-28T17:23:03;29.63;;;15.20;;
41426;SDS011;27171;51.812;19.514;2023-02-28T17:29:09;26.15;;;13.27;;
41426;SDS011;27171;51.812;19.514;2023-02-28T17:32:21;34.45;;;17.05;;
41426;SDS011;27171;51.812;19.514;2023-02-28T17:41:24;30.33;;;15.82;;
41426;SDS011;27171;51.812;19.514;2023-02-28T17:44:25;40.83;;;21.58;;
41426;SDS011;27171;51.812;19.514;2023-02-28T17:47:27;48.17;;;23.30;;
41426;SDS011;27171;51.812;19.514;2023-02-28T17:50:28;49.08;;;22.50;;
41426;SDS011;27171;51.812;19.514;2023-02-28T17:53:29;46.92;;;23.10;;
41426;SDS011;27171;51.812;19.514;2023-02-28T17:59:31;43.00;;;21.85;;
41426;SDS011;27171;51.812;19.514;2023-02-28T18:02:33;46.97;;;23.95;;
41426;SDS011;27171;51.812;19.514;2023-02-28T18:05:34;45.30;;;23.90;;
41426;SDS011;27171;51.812;19.514;2023-02-28T18:08:36;44.45;;;23.80;;
41426;SDS011;27171;51.812;19.514;2023-02-28T18:11:37;43.28;;;24.08;;
41426;SDS011;27171;51.812;19.514;2023-02-28T18:14:38;42.90;;;24.17;;
41426;SDS011;27171;51.812;19.514;2023-02-28T18:17:40;37.47;;;22.98;;
41426;SDS011;27171;51.812;19.514;2023-02-28T18:20:42;40.63;;;22.05;;
41426;SDS011;27171;51.812;19.514;2023-02-28T18:23:43;35.80;;;20.58;;
41426;SDS011;27171;51.812;19.514;2023-02-28T18:26:44;35.85;;;20.27;;
41426;SDS011;27171;51.812;19.514;2023-02-28T18:29:45;37.80;;;19.80;;
41426;SDS011;27171;51.812;19.514;2023-02-28T18:32:47;35.38;;;19.33;;
41426;SDS011;27171;51.812;19.514;2023-02-28T18:35:54;42.10;;;23.40;;
41426;SDS011;27171;51.812;19.514;2023-02-28T18:38:56;51.83;;;26.20;;
41426;SDS011;27171;51.812;19.514;2023-02-28T18:41:57;46.50;;;25.25;;
41426;SDS011;27171;51.812;19.514;2023-02-28T18:44:59;45.78;;;24.73;;
41426;SDS011;27171;51.812;19.514;2023-02-28T18:48:03;35.83;;;20.88;;
41426;SDS011;27171;51.812;19.514;2023-02-28T18:51:12;41.55;;;24.60;;
41426;SDS011;27171;51.812;19.514;2023-02-28T18:54:15;34.75;;;20.95;;
41426;SDS011;27171;51.812;19.514;2023-02-28T18:57:17;32.22;;;19.60;;
41426;SDS011;27171;51.812;19.514;2023-02-28T19:00:18;35.15;;;21.42;;
41426;SDS011;27171;51.812;19.514;2023-02-28T19:03:19;42.92;;;23.20;;
41426;SDS011;27171;51.812;19.514;2023-02-28T19:09:21;39.60;;;20.25;;
41426;SDS011;27171;51.812;19.514;2023-02-28T19:12:22;37.72;;;20.98;;
41426;SDS011;27171;51.812;19.514;2023-02-28T19:15:24;33.92;;;20.45;;
41426;SDS011;27171;51.812;19.514;2023-02-28T19:18:25;36.28;;;20.40;;
41426;SDS011;27171;51.812;19.514;2023-02-28T19:21:26;36.05;;;20.85;;
41426;SDS011;27171;51.812;19.514;2023-02-28T19:24:28;37.72;;;21.25;;
41426;SDS011;27171;51.812;19.514;2023-02-28T19:27:29;33.80;;;20.70;;
41426;SDS011;27171;51.812;19.514;2023-02-28T19:30:31;33.53;;;21.20;;
41426;SDS011;27171;51.812;19.514;2023-02-28T19:33:32;29.65;;;18.70;;
41426;SDS011;27171;51.812;19.514;2023-02-28T19:36:33;29.10;;;19.67;;
41426;SDS011;27171;51.812;19.514;2023-02-28T19:39:36;30.38;;;18.85;;
41426;SDS011;27171;51.812;19.514;2023-02-28T19:42:37;30.50;;;19.55;;
41426;SDS011;27171;51.812;19.514;2023-02-28T19:45:38;29.70;;;18.30;;
41426;SDS011;27171;51.812;19.514;2023-02-28T19:48:40;32.88;;;20.05;;
41426;SDS011;27171;51.812;19.514;2023-02-28T19:51:42;35.67;;;21.35;;
41426;SDS011;27171;51.812;19.514;2023-02-28T19:54:43;31.42;;;19.38;;
41426;SDS011;27171;51.812;19.514;2023-02-28T19:57:46;35.45;;;21.50;;
41426;SDS011;27171;51.812;19.514;2023-02-28T20:00:47;32.30;;;20.05;;
41426;SDS011;27171;51.812;19.514;2023-02-28T20:03:49;31.75;;;19.30;;
41426;SDS011;27171;51.812;19.514;2023-02-28T20:06:50;35.70;;;20.45;;
41426;SDS011;27171;51.812;19.514;2023-02-28T20:09:52;34.67;;;19.45;;
41426;SDS011;27171;51.812;19.514;2023-02-28T20:12:53;33.22;;;20.55;;
41426;SDS011;27171;51.812;19.514;2023-02-28T20:15:57;34.20;;;20.80;;
41426;SDS011;27171;51.812;19.514;2023-02-28T20:18:58;30.73;;;18.73;;
41426;SDS011;27171;51.812;19.514;2023-02-28T20:22:00;33.67;;;20.08;;
41426;SDS011;27171;51.812;19.514;2023-02-28T20:25:04;33.30;;;21.65;;
41426;SDS011;27171;51.812;19.514;2023-02-28T20:28:06;34.33;;;21.20;;
41426;SDS011;27171;51.812;19.514;2023-02-28T20:31:15;30.23;;;18.45;;
41426;SDS011;27171;51.812;19.514;2023-02-28T20:34:18;25.27;;;15.65;;
41426;SDS011;27171;51.812;19.514;2023-02-28T20:37:19;33.78;;;20.02;;
41426;SDS011;27171;51.812;19.514;2023-02-28T20:40:20;36.47;;;21.73;;
41426;SDS011;27171;51.812;19.514;2023-02-28T20:43:22;36.05;;;22.63;;
41426;SDS011;27171;51.812;19.514;2023-02-28T20:46:26;37.85;;;23.98;;
41426;SDS011;27171;51.812;19.514;2023-02-28T20:49:27;37.22;;;22.25;;
41426;SDS011;27171;51.812;19.514;2023-02-28T20:52:29;34.35;;;21.08;;
41426;SDS011;27171;51.812;19.514;2023-02-28T20:55:30;34.47;;;21.92;;
41426;SDS011;27171;51.812;19.514;2023-02-28T20:58:32;37.88;;;22.92;;
41426;SDS011;27171;51.812;19.514;2023-02-28T21:01:35;40.05;;;24.02;;
41426;SDS011;27171;51.812;19.514;2023-02-28T21:04:36;35.75;;;22.25;;
41426;SDS011;27171;51.812;19.514;2023-02-28T21:07:37;34.63;;;21.63;;
41426;SDS011;27171;51.812;19.514;2023-02-28T21:10:38;28.55;;;18.30;;
41426;SDS011;27171;51.812;19.514;2023-02-28T21:13:40;30.85;;;18.55;;
41426;SDS011;27171;51.812;19.514;2023-02-28T21:16:42;31.55;;;18.40;;
41426;SDS011;27171;51.812;19.514;2023-02-28T21:19:44;30.45;;;18.25;;
41426;SDS011;27171;51.812;19.514;2023-02-28T21:22:47;30.25;;;18.20;;
41426;SDS011;27171;51.812;19.514;2023-02-28T21:25:48;33.22;;;18.83;;
41426;SDS011;27171;51.812;19.514;2023-02-28T21:28:50;34.60;;;18.83;;
41426;SDS011;27171;51.812;19.514;2023-02-28T21:31:55;31.00;;;19.83;;
41426;SDS011;27171;51.812;19.514;2023-02-28T21:34:56;36.35;;;21.42;;
41426;SDS011;27171;51.812;19.514;2023-02-28T21:37:58;34.35;;;22.02;;
41426;SDS011;27171;51.812;19.514;2023-02-28T21:41:04;37.47;;;21.80;;
41426;SDS011;27171;51.812;19.514;2023-02-28T21:44:13;40.10;;;24.38;;
41426;SDS011;27171;51.812;19.514;2023-02-28T21:47:14;50.78;;;28.67;;
41426;SDS011;27171;51.812;19.514;2023-02-28T21:50:15;47.35;;;27.38;;
41426;SDS011;27171;51.812;19.514;2023-02-28T21:53:17;53.90;;;30.73;;
41426;SDS011;27171;51.812;19.514;2023-02-28T21:56:19;47.75;;;28.55;;
41426;SDS011;27171;51.812;19.514;2023-02-28T21:59:22;40.95;;;24.95;;
41426;SDS011;27171;51.812;19.514;2023-02-28T22:02:23;38.28;;;23.13;;